Huadong Pearl 8 — 3EQX7 — position and weather

sailwx.info

Track history (hours):
 
Tides and Currents Weather Stations Pressure Air Temp Water Temp Dewpoint Dewpoint Depression Visibility Wind Speed Wind Dir Waves Ship Positions

Huadong Pearl 8

Last reported at 2018-Apr-20 20:32 UTC. Time now 2018-Apr-24 10:40 UTC.
Position N 36°52' E 123°35'.

Length 196 m; draft 6.2 m.

Type: Passenger vessel. MMSI: 374869000.

Date/timePositionNaut miles runAvg speedWind from/ knotsBaromVisibWave heightAir tempDewpointWater temp
2018-Apr-20 20:32N 36°52' E 123°35'016.8
2018-Apr-20 20:30N 36°52' E 123°36'816.1
2018-Apr-20 20:00N 36°52' E 123°46'816.0
2018-Apr-20 19:30N 36°52' E 123°56'815.8
2018-Apr-20 19:00N 36°51' E 124°06'815.9
2018-Apr-20 18:30N 36°52' E 124°16'915.9
2018-Apr-20 17:57N 36°52' E 124°27'716.1
2018-Apr-20 17:30N 36°52' E 124°36'816.4
2018-Apr-20 17:00N 36°52' E 124°46'60 2.4
2018-Apr-19 16:25N 36°51' E 123°31'  
Track history (hours):
 
Tides and Currents Weather Stations Pressure Air Temp Water Temp Dewpoint Dewpoint Depression Visibility Wind Speed Wind Dir Waves Ship Positions

Huadong Pearl 8

Last reported at 2018-Apr-20 20:32 UTC. Time now 2018-Apr-24 10:40 UTC.
Position N 36°52' E 123°35'.

Length 196 m; draft 6.2 m.

Type: Passenger vessel. MMSI: 374869000.

Date/timePositionNaut miles runAvg speedWind from/ knotsBaromVisibWave heightAir tempDewpointWater temp
2018-Apr-20 20:32N 36°52' E 123°35'016.8
2018-Apr-20 20:30N 36°52' E 123°36'816.1
2018-Apr-20 20:00N 36°52' E 123°46'816.0
2018-Apr-20 19:30N 36°52' E 123°56'815.8
2018-Apr-20 19:00N 36°51' E 124°06'815.9
2018-Apr-20 18:30N 36°52' E 124°16'915.9
2018-Apr-20 17:57N 36°52' E 124°27'716.1
2018-Apr-20 17:30N 36°52' E 124°36'816.4
2018-Apr-20 17:00N 36°52' E 124°46'60 2.4
2018-Apr-19 16:25N 36°51' E 123°31'  

Dump ship's entire track history